Flight Track Log - Related Links

Times and Time Zones

All times are in EDT time to prevent confusion due to time zone crossing. See the BMG104 flight status page for this flight to view local times or setup timezone preferences in your user account.

Time Position Orientation Groundspeed Altitude Reporting Facility
EDT Latitude Longitude Course Direction KTS MPH feet Rate Location/Type
Thu 11:27:04 PM 47.6167 -52.6167 161° South 180 207 2,400  Level Gander Center
Thu 11:28:04 PM 47.5500 -52.5833 161° South 220 253 5,800 3,000 Climbing Gander Center
Thu 11:29:04 PM 47.5167 -52.6667 239° Southwest 280 322 8,400 2,500 Climbing Gander Center
Thu 11:30:04 PM 47.5000 -52.7833 258° West 310 357 10,800 2,000 Climbing Gander Center
Thu 11:31:04 PM 47.5000 -52.9333 270° West 350 403 12,400 1,700 Climbing Gander Center
Thu 11:32:04 PM 47.5000 -53.0833 270° West 380 437 14,200 1,900 Climbing Gander Center
Thu 11:33:04 PM 47.4667 -53.2500 254° West 390 449 16,200 2,050 Climbing Gander Center
Thu 11:34:04 PM 47.4667 -53.4167 270° West 400 460 18,300 1,900 Climbing Gander Center
Thu 11:35:04 PM 47.4667 -53.5667 270° West 390 449 20,000 2,025 Climbing Gander Center
Thu 11:35:24 PM 47.4500 -53.6333 250° West 390 449 21,000 2,475 Climbing Moncton Center
Thu 11:36:24 PM 47.4333 -53.7833 261° West 390 449 23,300 2,280 Climbing Moncton Center
Thu 11:37:04 PM 47.4333 -53.9000 270° West 390 449 24,800 1,920 Climbing Gander Center
Thu 11:38:04 PM 47.4333 -54.0667 270° West 400 460 26,500 1,550 Climbing Gander Center
Thu 11:39:04 PM 47.4167 -54.2167 261° West 410 472 27,900 1,500 Climbing Gander Center
Thu 11:40:04 PM 47.4167 -54.3833 270° West 420 483 29,500 1,500 Climbing Gander Center
Thu 11:40:24 PM 47.4167 -54.4667 270° West 420 483 29,900 1,425 Climbing Moncton Center
Thu 11:41:24 PM 47.4167 -54.6333 270° West 420 483 31,400 1,500 Climbing Moncton Center
Thu 11:42:24 PM 47.4167 -54.8167 270° West 420 483 32,900 1,450 Climbing Moncton Center
Thu 11:43:24 PM 47.4167 -54.9667 270° West 420 483 34,300 1,500 Climbing Moncton Center
Thu 11:44:24 PM 47.3833 -55.1667 256° West 410 472 35,900 850 Climbing Moncton Center
Thu 11:45:24 PM 47.3833 -55.3167 270° West 410 472 36,000 50 Climbing Moncton Center
Thu 11:46:24 PM 47.3833 -55.4833 270° West 430 495 36,000  Level Moncton Center
Thu 11:47:24 PM 47.3833 -55.6667 270° West 450 518 36,000  Level Moncton Center
Thu 11:48:24 PM 47.3667 -55.8667 263° West 460 529 36,000 500 Level Moncton Center
Thu 11:49:24 PM 47.3667 -56.0667 270° West 460 529 37,000 1,080 Climbing Moncton Center
Thu 11:50:04 PM 47.3667 -56.1833 270° West 450 518 37,800 600 Climbing Gander Center
Thu 11:51:04 PM 47.3500 -56.3500 262° West 440 506 38,000 150 Climbing Gander Center
Thu 11:51:24 PM 47.3500 -56.4000 270° West 440 506 38,000  Level Moncton Center
Thu 11:52:24 PM 47.3333 -56.6167 264° West 460 529 38,000  Level Moncton Center
Thu 11:53:24 PM 47.3333 -56.8000 270° West 460 529 38,000  Level Moncton Center
Thu 11:54:24 PM 47.3167 -56.9833 262° West 460 529 38,000  Level Moncton Center
Thu 11:55:24 PM 47.3167 -57.1833 270° West 470 541 38,000  Level Moncton Center
Thu 11:56:24 PM 47.3167 -57.3833 270° West 470 541 38,000  Level Moncton Center
Thu 11:57:24 PM 47.3167 -57.5833 270° West 470 541 38,000  Level Moncton Center
Thu 11:58:24 PM 47.3000 -57.7500 262° West 470 541 38,000  Level Moncton Center
Thu 11:59:04 PM 47.3000 -57.8833 270° West 470 541 38,000  Level Gander Center
Fri 12:00:04 AM 47.3000 -58.0833 270° West 470 541 38,000  Level Gander Center
Fri 12:00:24 AM 47.3000 -58.1500 270° West 480 552 38,000  Level Moncton Center
Fri 12:01:04 AM 47.2833 -58.2833 260° West 470 541 38,000  Level Gander Center
Fri 12:02:04 AM 47.2833 -58.4833 270° West 470 541 38,000  Level Gander Center
Fri 12:02:24 AM 47.2833 -58.5500 270° West 480 552 38,000  Level Moncton Center
Fri 12:03:24 AM 47.2667 -58.7167 262° West 470 541 38,000  Level Moncton Center
Fri 12:04:24 AM 47.2667 -58.9167 270° West 470 541 38,000  Level Moncton Center
Fri 12:05:24 AM 47.2500 -59.1167 263° West 470 541 38,000  Level Moncton Center
Fri 12:06:24 AM 47.2333 -59.3000 262° West 460 529 38,000  Level Moncton Center
Fri 12:07:24 AM 47.2333 -59.4833 270° West 470 541 38,000  Level Moncton Center
Fri 12:08:24 AM 47.2167 -59.6833 263° West 470 541 38,000  Level Moncton Center
Fri 12:09:24 AM 47.2167 -59.8833 270° West 470 541 38,000  Level Moncton Center
Fri 12:10:24 AM 47.2000 -60.0833 263° West 470 541 38,000  Level Moncton Center
Fri 12:11:04 AM 47.1833 -60.2000 258° West 470 541 38,000  Level Gander Center
Fri 12:12:04 AM 47.2000 -60.4000 277° West 470 541 38,000  Level Gander Center
Fri 12:12:24 AM 47.1833 -60.4500 244° Southwest 470 541 38,000  Level Moncton Center
Fri 12:13:24 AM 47.1667 -60.6500 263° West 490 564 38,000  Level Moncton Center
Fri 12:14:24 AM 47.1667 -60.8500 270° West 470 541 38,000  Level Moncton Center
Fri 12:15:24 AM 47.1500 -61.0167 262° West 470 541 38,000  Level Moncton Center
Fri 12:16:24 AM 47.1333 -61.2167 263° West 470 541 38,000  Level Moncton Center
Fri 12:17:24 AM 47.1333 -61.4167 270° West 470 541 38,000  Level Moncton Center
Fri 12:18:24 AM 47.1167 -61.6167 263° West 470 541 38,000  Level Moncton Center
Fri 12:19:24 AM 47.1000 -61.7833 262° West 460 529 38,000  Level Moncton Center
Fri 12:20:24 AM 47.0833 -61.9833 263° West 470 541 38,000  Level Moncton Center
Fri 12:21:24 AM 47.0833 -62.1833 270° West 470 541 38,000  Level Moncton Center
Fri 12:22:24 AM 47.0667 -62.3833 263° West 470 541 38,000  Level Moncton Center
Fri 12:23:24 AM 47.0500 -62.5500 262° West 470 541 38,000  Level Moncton Center
Fri 12:24:24 AM 47.0333 -62.7500 263° West 470 541 38,000  Level Moncton Center
Fri 12:25:24 AM 47.0167 -62.9500 263° West 470 541 38,000  Level Moncton Center
Fri 12:26:24 AM 47.0000 -63.1167 262° West 470 541 38,000  Level Moncton Center
Fri 12:27:24 AM 47.0000 -63.3500 270° West 470 541 38,000  Level Moncton Center
Fri 12:28:24 AM 46.9833 -63.5167 262° West 480 552 38,000  Level Moncton Center
Fri 12:29:04 AM 46.9500 -63.6500 250° West 480 552 38,000  Level Gander Center
Fri 12:30:04 AM 46.9500 -63.8500 270° West 480 552 38,000  Level Gander Center
Fri 12:30:24 AM 46.9500 -63.9000 270° West 480 552 38,000  Level Moncton Center
Fri 12:31:24 AM 46.9167 -64.1333 258° West 490 564 38,000  Level Moncton Center
Fri 12:32:24 AM 46.9000 -64.3000 262° West 480 552 38,000  Level Moncton Center
Fri 12:33:24 AM 46.8833 -64.5167 264° West 490 564 38,000  Level Moncton Center
Fri 12:34:24 AM 46.8667 -64.6833 262° West 490 564 38,000  Level Moncton Center
Fri 12:35:24 AM 46.8500 -64.9167 264° West 490 564 38,000  Level Moncton Center
Fri 12:36:24 AM 46.8333 -65.1000 262° West 490 564 38,000  Level Moncton Center
Fri 12:37:24 AM 46.8167 -65.2833 262° West 490 564 38,000  Level Moncton Center
Fri 12:38:24 AM 46.7833 -65.5000 257° West 490 564 38,000  Level Moncton Center
Fri 12:39:24 AM 46.7667 -65.7000 263° West 490 564 38,000  Level Moncton Center
Fri 12:40:24 AM 46.7500 -65.8833 263° West 490 564 38,000  Level Moncton Center
Fri 12:41:24 AM 46.7333 -66.0833 263° West 490 564 38,000  Level Moncton Center
Fri 12:42:24 AM 46.7167 -66.2833 263° West 490 564 38,000  Level Moncton Center
Fri 12:43:24 AM 46.7000 -66.4667 263° West 490 564 38,000  Level Moncton Center
Fri 12:44:24 AM 46.6667 -66.6667 256° West 490 564 38,000  Level Moncton Center
Fri 12:45:24 AM 46.6333 -66.8667 256° West 490 564 38,000  Level Moncton Center
Fri 12:46:24 AM 46.6167 -67.0833 264° West 490 564 38,000  Level Moncton Center
Fri 12:47:24 AM 46.6000 -67.2500 262° West 490 564 38,000  Level Moncton Center
Fri 12:48:24 AM 46.5667 -67.4333 255° West 490 564 38,000  Level Moncton Center
Fri 12:49:24 AM 46.5500 -67.6333 263° West 480 552 38,000 -52 Level Moncton Center
Fri 12:50:20 AM 46.5478 -67.8003 269° West 490 564 37,900 -52 Descending Boston Center
Fri 12:51:20 AM 46.5239 -67.9922 260° West 490 564 37,900 150 Level Boston Center
Fri 12:52:20 AM 46.4997 -68.1811 260° West 490 564 38,200 700 Climbing Boston Center
Fri 12:53:20 AM 46.4772 -68.3669 260° West 477 549 39,300 900 Climbing Boston Center
Fri 12:54:20 AM 46.4561 -68.5461 260° West 465 535 40,000 350 Climbing Boston Center
Fri 12:55:20 AM 46.4308 -68.7225 258° West 459 528 40,000  Level Boston Center
Fri 12:56:20 AM 46.4122 -68.8683 260° West 454 522 40,000  Level Boston Center
Fri 12:57:20 AM 46.3833 -69.0867 259° West 454 522 40,000 -50 Level Boston Center
Fri 12:58:20 AM 46.3536 -69.2869 258° West 459 528 39,900 -50 Descending Boston Center
Fri 12:59:20 AM 46.3272 -69.4717 258° West 464 534 39,900  Level Boston Center
Fri 01:00:20 AM 46.3025 -69.6561 259° West 470 541 39,900  Level Boston Center
Fri 01:01:20 AM 46.2775 -69.8406 259° West 470 541 39,900  Level Boston Center
Fri 01:02:20 AM 46.2483 -70.0281 257° West 470 541 39,900 51 Level Boston Center
Fri 01:03:17 AM 46.2000 -70.1667 243° Southwest 470 541 40,000 51 Climbing Montreal Center
Fri 01:04:17 AM 46.1667 -70.3500 255° West 470 541 40,000  Level Montreal Center
Fri 01:05:17 AM 46.1333 -70.5500 257° West 470 541 40,000  Level Montreal Center
Fri 01:06:17 AM 46.0833 -70.7167 247° West 470 541 40,000  Level Montreal Center
Fri 01:07:17 AM 46.0667 -70.9000 263° West 460 529 40,000  Level Montreal Center
Fri 01:08:17 AM 46.0167 -71.0667 247° West 460 529 40,000  Level Montreal Center
Fri 01:09:17 AM 45.9667 -71.2333 247° West 460 529 40,000  Level Montreal Center
Fri 01:10:17 AM 45.9500 -71.4167 263° West 460 529 40,000  Level Montreal Center
Fri 01:11:17 AM 45.9000 -71.5833 247° West 460 529 40,000  Level Montreal Center
Fri 01:12:17 AM 45.8667 -71.7500 254° West 460 529 40,000  Level Montreal Center
Fri 01:13:17 AM 45.8167 -71.9500 250° West 460 529 40,000  Level Montreal Center
Fri 01:14:17 AM 45.7833 -72.1000 252° West 450 518 40,000  Level Montreal Center
Fri 01:15:17 AM 45.7500 -72.3000 257° West 450 518 40,000  Level Montreal Center
Fri 01:16:17 AM 45.7000 -72.4667 247° West 450 518 40,000  Level Montreal Center
Fri 01:17:17 AM 45.6667 -72.6333 254° West 450 518 40,000  Level Montreal Center
Fri 01:18:17 AM 45.6333 -72.8000 254° West 450 518 40,000  Level Montreal Center
Fri 01:19:17 AM 45.6000 -72.9500 252° West 450 518 40,000  Level Montreal Center
Fri 01:20:17 AM 45.5500 -73.1500 250° West 450 518 40,000  Level Montreal Center
Fri 01:21:17 AM 45.5167 -73.2833 250° West 450 518 40,000  Level Montreal Center
Fri 01:22:17 AM 45.4667 -73.4833 250° West 450 518 40,000  Level Montreal Center
Fri 01:23:17 AM 45.4333 -73.6333 252° West 450 518 40,000  Level Montreal Center
Fri 01:24:17 AM 45.3833 -73.8000 247° West 450 518 40,000  Level Montreal Center
Fri 01:25:17 AM 45.3333 -73.9667 247° West 450 518 40,000  Level Montreal Center
Fri 01:26:17 AM 45.3167 -74.1333 262° West 450 518 40,000  Level Montreal Center
Fri 01:27:17 AM 45.2667 -74.3000 247° West 440 506 40,000  Level Montreal Center
Fri 01:28:17 AM 45.2333 -74.4667 254° West 440 506 40,000  Level Montreal Center
Fri 01:29:17 AM 45.1833 -74.6333 247° West 440 506 40,000  Level Montreal Center
Fri 01:30:17 AM 45.1333 -74.8000 247° West 440 506 40,000  Level Montreal Center
Fri 01:31:17 AM 45.1000 -74.9500 253° West 440 506 40,000  Level Montreal Center
Fri 01:32:17 AM 45.0500 -75.1167 247° West 440 506 40,000  Level Montreal Center
Fri 01:33:17 AM 45.0167 -75.2833 254° West 440 506 40,000  Level Montreal Center
Fri 01:34:17 AM 44.9667 -75.4500 247° West 440 506 40,000  Level Montreal Center
Fri 01:35:17 AM 44.9167 -75.6167 247° West 440 506 40,000  Level Montreal Center
Fri 01:36:17 AM 44.8833 -75.7833 254° West 440 506 40,000  Level Montreal Center
Fri 01:37:17 AM 44.8500 -75.9167 251° West 430 495 40,000  Level Montreal Center
Fri 01:38:17 AM 44.8000 -76.0833 247° West 430 495 40,000  Level Montreal Center
Fri 01:39:17 AM 44.7500 -76.2500 247° West 430 495 40,000  Level Montreal Center
Fri 01:40:17 AM 44.7167 -76.4167 254° West 430 495 40,000  Level Montreal Center
Fri 01:40:51 AM 44.6833 -76.4667 227° Southwest 430 495 40,000  Level Toronto Center
Fri 01:41:51 AM 44.6500 -76.6000 251° West 430 495 40,000  Level Toronto Center
Fri 01:42:17 AM 44.6333 -76.7167 259° West 430 495 40,000  Level Montreal Center
Fri 01:43:17 AM 44.5833 -76.8667 245° Southwest 430 495 40,000  Level Montreal Center
Fri 01:44:17 AM 44.5500 -77.0167 253° West 430 495 40,000  Level Montreal Center
Fri 01:45:17 AM 44.5000 -77.1833 247° West 430 495 40,000 -500 Level Montreal Center
Fri 01:46:17 AM 44.4667 -77.3333 253° West 430 495 39,000 -1,532 Descending Montreal Center
Fri 01:46:51 AM 44.4333 -77.4167 241° Southwest 430 495 37,600 -2,234 Descending Toronto Center
Fri 01:47:51 AM 44.3833 -77.5500 242° Southwest 430 495 35,500 -2,150 Descending Toronto Center
Fri 01:48:51 AM 44.3333 -77.7167 247° West 440 506 33,300 -2,150 Descending Toronto Center
Fri 01:49:51 AM 44.2833 -77.8667 245° Southwest 440 506 31,200 -2,200 Descending Toronto Center
Fri 01:50:51 AM 44.2333 -78.0333 247° West 420 483 28,900 -2,200 Descending Toronto Center
Fri 01:51:51 AM 44.1833 -78.1667 242° Southwest 410 472 26,800 -2,100 Descending Toronto Center
Fri 01:52:51 AM 44.1500 -78.3000 251° West 400 460 24,700 -2,150 Descending Toronto Center
Fri 01:53:51 AM 44.1000 -78.4500 245° Southwest 390 449 22,500 -2,050 Descending Toronto Center
Fri 01:54:51 AM 44.0667 -78.5667 248° West 380 437 20,600 -1,850 Descending Toronto Center
Fri 01:55:51 AM 44.0333 -78.7000 251° West 370 426 18,800 -1,600 Descending Toronto Center
Fri 01:56:51 AM 43.9833 -78.8167 239° Southwest 360 414 17,400 -1,600 Descending Toronto Center
Fri 01:57:51 AM 43.9500 -78.9667 253° West 340 391 15,600 -1,750 Descending Toronto Center
Fri 01:58:51 AM 43.9000 -79.0500 230° Southwest 320 368 13,900 -1,750 Descending Toronto Center
Fri 01:59:51 AM 43.8667 -79.1667 248° West 310 357 12,100 -1,750 Descending Toronto Center
Fri 02:00:51 AM 43.8167 -79.2667 235° Southwest 300 345 10,400 -1,700 Descending Toronto Center
Fri 02:01:51 AM 43.7667 -79.3500 230° Southwest 290 334 8,700 -1,750 Descending Toronto Center
Fri 02:02:51 AM 43.7333 -79.4500 245° Southwest 280 322 6,900 -1,350 Descending Toronto Center
Fri 02:03:51 AM 43.7333 -79.5333 270° West 260 299 6,000 -450 Descending Toronto Center
Fri 02:04:51 AM 43.7333 -79.6333 270° West 220 253 6,000 -500 Level Toronto Center
Fri 02:05:51 AM 43.7167 -79.7000 251° West 200 230 5,000 -1,000 Descending Toronto Center
Fri 02:06:51 AM 43.7000 -79.7500 245° Southwest 190 219 4,000 -1,000 Descending Toronto Center
Fri 02:07:51 AM 43.6667 -79.8167 235° Southwest 180 207 3,000 -500 Descending Toronto Center
Fri 02:08:51 AM 43.6333 -79.8333 200° South 150 173 3,000  Level Toronto Center
Fri 02:09:51 AM 43.6000 -79.8667 216° Southwest 160 184 3,000  Level Toronto Center
Fri 02:10:51 AM 43.5667 -79.8000 125° Southeast 160 184 3,000 -250 Level Toronto Center
Fri 02:11:51 AM 43.6000 -79.7500 47° Northeast 180 207 2,500 -700 Descending Toronto Center
Fri 02:12:51 AM 43.6333 -79.7000 47° Northeast 170 196 1,600 -850 Descending Toronto Center
Fri 02:13:51 AM 43.6500 -79.6500 65° Northeast 150 173 800 -800 Descending Toronto Center
Fri 02:15:00 AM 43.6667 -79.6167 36° Northeast  Level FlightAware

Login

Don't have an account? Register now (free) for customized features, flight alerts, and more!